Arlington, South Dakota
Current Conditions -  °F | °C
As of 4:15 PM on Sunday 23 Nov 2014 (Local Time) from KMDS Reporting Station
Overcast Overcast  
Wind Chill: 24°   Ceiling: 3300
Heat Index: 36°   Visibility: 10mi
Dew Point: 30°   Wind: 24mph
Humidity: 81%   Direction: 320°NW
Pressure: 29.51"   Gusts: 32mph
Location:  44.36°N, 97.13°W
Report Text: KMDS 232215Z AUTO 32021G28KT 10SM OVC033 02/M01 A2951 RMK AO2
Loading
Personal Weather Stations






























Interactive Weather Map New forecast layout! Learn more

10-Day Weather Forecast

Advertisements
Track Severe Weather on mobile